Williams Field, Antarctica

7:40 PM NZST on August 04, 2015 (GMT +1200)
ANTARCTICA | | Change Station
CLOSE
Current Station
Personal Weather Station
Location: Scott Base, Ross Island
Elevation: 63 ft
Nearby Weather Stations

Elev 63 ft 77.85 °S, 166.80 °E | Updated 10 minutes ago

Clear
Clear
-20.8 °F
Feels Like -21 °F
N
0.0
Wind Variable Wind from North
Gusts 0.0 mph

Today
High -- | Low -- °F
--% Chance of Precip.
Yesterday
High -- | Low -- °F
Precip. -- in
12:00 PM 12:00 PM
Waning Gibbous, 80% visible
Pressure 29.76 in
Visibility 6.2 miles
Clouds Clear
Windchill -21 °F
Dew Point -26 °F
Humidity 76%
Rainfall 0.00 in
Snow Depth Not available.
UV 0 out of 12
Pollen Not available.
Air Quality Not available.
Flu Activity Not available.
METAR NZCM 040555Z 00000KT 9999 SKC M30/M34 A2974 RMK SLP078

More Conditions Fewer Conditions

Pressure 29.76 in
Visibility 6.2 miles
Clouds Clear
Windchill -21 °F
Dew Point -26 °F
Humidity 76%
Rainfall 0.00 in
Snow Depth Not available.
UV 0 out of 12
Pollen Not available.
Air Quality Not available.
Flu Activity Not available.
METAR NZCM 040555Z 00000KT 9999 SKC M30/M34 A2974 RMK SLP078

More Conditions Fewer Conditions

10-Day Weather Forecast

×

Almanac

Astronomy

Aug. 04, 2015 Rise Set
Actual Time
Civil Twilight
Nautical Twilight
Astronomical Twilight
Moon
Length of Visible Light
Length of Day
Tomorrow will be .
, % of the Moon is Illuminated

Today's Extremes

Country Highs Country Lows

Community

WunderPhotos

Upload Photos

1,843,877 photos uploaded!

WunderBlogs® & News

Nearby

Air Quality

  Air Quality AQ Index Pollutant
Not available.

Snow Depth

Station Depth Elevation

Earthquake Activity

City Distance Mag. Time & Date
Minimum magnitude displayed is 2.5.

Coastal Water Temperatures

Place Temperature

Stations

Nearby Weather Stations

Station Location Temp. Windchill Dew Point Humidity Wind Precip. Elev Updated Type